sensor_id;sensor_type;location;lat;lon;timestamp;P1;durP1;ratioP1;P2;durP2;ratioP2
63900;SDS011;50538;53.482;10.294;2023-02-13T00:09:40;8.75;;;4.05;;
63900;SDS011;50538;53.482;10.294;2023-02-13T00:19:40;9.18;;;4.07;;
63900;SDS011;50538;53.482;10.294;2023-02-13T00:29:41;8.50;;;3.55;;
63900;SDS011;50538;53.482;10.294;2023-02-13T00:39:41;8.18;;;3.30;;
63900;SDS011;50538;53.482;10.294;2023-02-13T00:49:41;10.85;;;4.10;;
63900;SDS011;50538;53.482;10.294;2023-02-13T00:59:42;10.50;;;4.38;;
63900;SDS011;50538;53.482;10.294;2023-02-13T01:09:42;8.38;;;3.92;;
63900;SDS011;50538;53.482;10.294;2023-02-13T01:19:43;11.50;;;4.70;;
63900;SDS011;50538;53.482;10.294;2023-02-13T01:29:43;9.07;;;3.58;;
63900;SDS011;50538;53.482;10.294;2023-02-13T01:39:43;8.30;;;3.10;;
63900;SDS011;50538;53.482;10.294;2023-02-13T01:49:44;14.15;;;4.53;;
63900;SDS011;50538;53.482;10.294;2023-02-13T01:59:47;10.88;;;4.28;;
63900;SDS011;50538;53.482;10.294;2023-02-13T02:09:52;11.00;;;4.05;;
63900;SDS011;50538;53.482;10.294;2023-02-13T02:20:09;10.70;;;3.60;;
63900;SDS011;50538;53.482;10.294;2023-02-13T02:51:37;8.50;;;3.10;;
63900;SDS011;50538;53.482;10.294;2023-02-13T03:01:42;6.93;;;2.90;;
63900;SDS011;50538;53.482;10.294;2023-02-13T03:12:03;6.85;;;3.10;;
63900;SDS011;50538;53.482;10.294;2023-02-13T03:42:54;6.75;;;3.15;;
63900;SDS011;50538;53.482;10.294;2023-02-13T03:52:59;6.07;;;2.80;;
63900;SDS011;50538;53.482;10.294;2023-02-13T04:03:15;7.53;;;3.25;;
63900;SDS011;50538;53.482;10.294;2023-02-13T04:23:29;7.13;;;3.10;;
63900;SDS011;50538;53.482;10.294;2023-02-13T04:33:30;5.10;;;2.33;;
63900;SDS011;50538;53.482;10.294;2023-02-13T04:43:30;5.57;;;2.53;;
63900;SDS011;50538;53.482;10.294;2023-02-13T04:53:30;7.65;;;2.53;;
63900;SDS011;50538;53.482;10.294;2023-02-13T05:03:31;6.15;;;2.22;;
63900;SDS011;50538;53.482;10.294;2023-02-13T05:13:31;6.82;;;2.42;;
63900;SDS011;50538;53.482;10.294;2023-02-13T05:23:32;8.20;;;2.80;;
63900;SDS011;50538;53.482;10.294;2023-02-13T05:33:32;5.40;;;2.22;;
63900;SDS011;50538;53.482;10.294;2023-02-13T05:43:33;5.70;;;2.88;;
63900;SDS011;50538;53.482;10.294;2023-02-13T05:53:33;7.05;;;2.47;;
63900;SDS011;50538;53.482;10.294;2023-02-13T06:03:34;6.95;;;2.88;;
63900;SDS011;50538;53.482;10.294;2023-02-13T06:13:34;9.50;;;3.20;;
63900;SDS011;50538;53.482;10.294;2023-02-13T06:23:35;7.22;;;3.00;;
63900;SDS011;50538;53.482;10.294;2023-02-13T06:33:35;7.03;;;3.03;;
63900;SDS011;50538;53.482;10.294;2023-02-13T06:43:35;6.00;;;2.33;;
63900;SDS011;50538;53.482;10.294;2023-02-13T06:53:36;11.18;;;3.50;;
63900;SDS011;50538;53.482;10.294;2023-02-13T07:03:36;11.38;;;2.78;;
63900;SDS011;50538;53.482;10.294;2023-02-13T07:13:36;7.70;;;3.42;;
63900;SDS011;50538;53.482;10.294;2023-02-13T07:23:37;6.72;;;2.97;;
63900;SDS011;50538;53.482;10.294;2023-02-13T07:33:37;8.07;;;2.67;;
63900;SDS011;50538;53.482;10.294;2023-02-13T07:43:37;8.13;;;2.85;;
63900;SDS011;50538;53.482;10.294;2023-02-13T07:53:38;9.35;;;3.88;;
63900;SDS011;50538;53.482;10.294;2023-02-13T08:03:38;9.27;;;3.50;;
63900;SDS011;50538;53.482;10.294;2023-02-13T08:13:39;8.93;;;3.58;;
63900;SDS011;50538;53.482;10.294;2023-02-13T08:23:40;9.50;;;3.55;;
63900;SDS011;50538;53.482;10.294;2023-02-13T08:33:40;9.57;;;3.63;;
63900;SDS011;50538;53.482;10.294;2023-02-13T08:43:41;8.52;;;3.35;;
63900;SDS011;50538;53.482;10.294;2023-02-13T08:53:41;10.52;;;3.63;;
63900;SDS011;50538;53.482;10.294;2023-02-13T09:03:42;9.07;;;2.95;;
63900;SDS011;50538;53.482;10.294;2023-02-13T09:13:42;7.70;;;2.92;;
63900;SDS011;50538;53.482;10.294;2023-02-13T09:23:42;8.48;;;3.45;;
63900;SDS011;50538;53.482;10.294;2023-02-13T09:33:43;10.98;;;3.53;;
63900;SDS011;50538;53.482;10.294;2023-02-13T09:43:57;7.82;;;3.25;;
63900;SDS011;50538;53.482;10.294;2023-02-13T09:54:04;12.27;;;4.95;;
63900;SDS011;50538;53.482;10.294;2023-02-13T10:25:23;12.75;;;3.75;;
63900;SDS011;50538;53.482;10.294;2023-02-13T10:35:28;11.65;;;4.15;;
63900;SDS011;50538;53.482;10.294;2023-02-13T10:55:36;14.70;;;4.78;;
63900;SDS011;50538;53.482;10.294;2023-02-13T11:05:43;13.30;;;3.92;;
63900;SDS011;50538;53.482;10.294;2023-02-13T11:15:54;10.43;;;4.13;;
63900;SDS011;50538;53.482;10.294;2023-02-13T11:36:22;12.68;;;5.22;;
63900;SDS011;50538;53.482;10.294;2023-02-13T11:46:25;12.45;;;4.35;;
63900;SDS011;50538;53.482;10.294;2023-02-13T11:56:49;12.98;;;4.07;;
63900;SDS011;50538;53.482;10.294;2023-02-13T12:07:03;13.38;;;4.85;;
63900;SDS011;50538;53.482;10.294;2023-02-13T12:17:22;9.98;;;4.53;;
63900;SDS011;50538;53.482;10.294;2023-02-13T13:29:23;13.40;;;4.67;;
63900;SDS011;50538;53.482;10.294;2023-02-13T13:49:57;13.52;;;4.50;;
63900;SDS011;50538;53.482;10.294;2023-02-13T14:00:00;11.95;;;4.43;;
63900;SDS011;50538;53.482;10.294;2023-02-13T14:10:02;14.20;;;4.70;;
63900;SDS011;50538;53.482;10.294;2023-02-13T14:20:14;13.60;;;4.20;;
63900;SDS011;50538;53.482;10.294;2023-02-13T14:30:24;11.68;;;4.45;;
63900;SDS011;50538;53.482;10.294;2023-02-13T14:40:29;14.50;;;5.88;;
63900;SDS011;50538;53.482;10.294;2023-02-13T14:50:49;19.23;;;7.25;;
63900;SDS011;50538;53.482;10.294;2023-02-13T15:00:58;15.48;;;6.05;;
63900;SDS011;50538;53.482;10.294;2023-02-13T15:10:59;14.40;;;4.63;;
63900;SDS011;50538;53.482;10.294;2023-02-13T15:21:00;13.88;;;4.82;;
63900;SDS011;50538;53.482;10.294;2023-02-13T15:31:01;15.13;;;6.00;;
63900;SDS011;50538;53.482;10.294;2023-02-13T15:41:12;10.57;;;4.93;;
63900;SDS011;50538;53.482;10.294;2023-02-13T15:51:25;17.00;;;6.38;;
63900;SDS011;50538;53.482;10.294;2023-02-13T16:01:32;14.75;;;5.60;;
63900;SDS011;50538;53.482;10.294;2023-02-13T16:11:37;14.98;;;5.90;;
63900;SDS011;50538;53.482;10.294;2023-02-13T16:21:39;15.88;;;6.15;;
63900;SDS011;50538;53.482;10.294;2023-02-13T16:31:40;19.00;;;6.88;;
63900;SDS011;50538;53.482;10.294;2023-02-13T16:41:42;17.23;;;6.38;;
63900;SDS011;50538;53.482;10.294;2023-02-13T16:51:47;19.38;;;5.88;;
63900;SDS011;50538;53.482;10.294;2023-02-13T17:12:15;20.48;;;6.43;;
63900;SDS011;50538;53.482;10.294;2023-02-13T17:32:32;15.97;;;5.63;;
63900;SDS011;50538;53.482;10.294;2023-02-13T17:42:32;17.98;;;6.25;;
63900;SDS011;50538;53.482;10.294;2023-02-13T17:52:33;16.77;;;6.25;;
63900;SDS011;50538;53.482;10.294;2023-02-13T18:02:34;19.30;;;6.28;;
63900;SDS011;50538;53.482;10.294;2023-02-13T18:12:37;16.77;;;5.72;;
63900;SDS011;50538;53.482;10.294;2023-02-13T18:22:37;16.38;;;5.30;;
63900;SDS011;50538;53.482;10.294;2023-02-13T18:32:41;17.50;;;5.95;;
63900;SDS011;50538;53.482;10.294;2023-02-13T18:42:41;21.35;;;7.40;;
63900;SDS011;50538;53.482;10.294;2023-02-13T18:52:44;23.75;;;7.28;;
63900;SDS011;50538;53.482;10.294;2023-02-13T19:02:45;22.90;;;8.05;;
63900;SDS011;50538;53.482;10.294;2023-02-13T19:12:46;22.70;;;6.90;;
63900;SDS011;50538;53.482;10.294;2023-02-13T19:22:47;22.17;;;7.88;;
63900;SDS011;50538;53.482;10.294;2023-02-13T19:32:47;18.90;;;8.77;;
63900;SDS011;50538;53.482;10.294;2023-02-13T19:42:47;19.83;;;6.38;;
63900;SDS011;50538;53.482;10.294;2023-02-13T19:52:49;15.20;;;5.25;;
63900;SDS011;50538;53.482;10.294;2023-02-13T20:02:49;19.58;;;6.38;;
63900;SDS011;50538;53.482;10.294;2023-02-13T20:12:50;23.50;;;7.72;;
63900;SDS011;50538;53.482;10.294;2023-02-13T20:22:53;15.00;;;5.65;;
63900;SDS011;50538;53.482;10.294;2023-02-13T20:32:53;19.88;;;7.13;;
63900;SDS011;50538;53.482;10.294;2023-02-13T20:42:54;17.08;;;6.40;;
63900;SDS011;50538;53.482;10.294;2023-02-13T20:52:54;15.60;;;5.63;;
63900;SDS011;50538;53.482;10.294;2023-02-13T21:02:54;19.30;;;5.55;;
63900;SDS011;50538;53.482;10.294;2023-02-13T21:12:55;14.60;;;5.93;;
63900;SDS011;50538;53.482;10.294;2023-02-13T21:22:55;23.17;;;6.70;;
63900;SDS011;50538;53.482;10.294;2023-02-13T21:32:55;14.85;;;5.07;;
63900;SDS011;50538;53.482;10.294;2023-02-13T21:42:56;14.75;;;5.15;;
63900;SDS011;50538;53.482;10.294;2023-02-13T21:52:56;21.80;;;5.93;;
63900;SDS011;50538;53.482;10.294;2023-02-13T22:02:56;12.98;;;5.35;;
63900;SDS011;50538;53.482;10.294;2023-02-13T22:12:57;14.15;;;4.85;;
63900;SDS011;50538;53.482;10.294;2023-02-13T22:22:57;15.43;;;5.32;;
63900;SDS011;50538;53.482;10.294;2023-02-13T22:32:58;15.68;;;5.70;;
63900;SDS011;50538;53.482;10.294;2023-02-13T22:42:58;18.17;;;5.05;;
63900;SDS011;50538;53.482;10.294;2023-02-13T22:52:59;15.18;;;5.72;;
63900;SDS011;50538;53.482;10.294;2023-02-13T23:03:00;14.10;;;4.45;;
63900;SDS011;50538;53.482;10.294;2023-02-13T23:13:00;17.67;;;4.82;;
63900;SDS011;50538;53.482;10.294;2023-02-13T23:23:01;15.10;;;5.45;;
63900;SDS011;50538;53.482;10.294;2023-02-13T23:33:01;16.67;;;5.50;;
63900;SDS011;50538;53.482;10.294;2023-02-13T23:43:01;14.43;;;5.43;;
63900;SDS011;50538;53.482;10.294;2023-02-13T23:53:02;16.73;;;4.95;;
